Mortlake, Australia
Current Conditions -  °F | °C
As of 7:30 AM on Monday 26 Jan 2015 (Local Time) from YMAV Reporting Station
Broken Clouds Broken Clouds  
Wind Chill: 50°   Ceiling: 6800
Heat Index: 50°   Visibility: 6mi
Dew Point: 46°   Wind: 7mph
Humidity: 87%   Direction: 300°WNW
Pressure: 30"   Gusts: NA
Location:  38.08°S, 142.81°E
Report Text: YMAV 252030Z AUTO 30006KT 9999 // BKN068 10/08 Q1016
Loading
Personal Weather Stations






























Interactive Weather Map New forecast layout! Learn more

10-Day Weather Forecast

Advertisements
Track Severe Weather on mobile